sensor_id;sensor_type;location;lat;lon;timestamp;pressure;altitude;pressure_sealevel;temperature
74798;BMP280;63326;45.088;7.658;2022-09-16T00:00:26;97782.41;;;22.82
74798;BMP280;63326;45.088;7.658;2022-09-16T00:02:53;97786.47;;;22.65
74798;BMP280;63326;45.088;7.658;2022-09-16T00:05:20;97780.09;;;22.94
74798;BMP280;63326;45.088;7.658;2022-09-16T00:07:47;97776.78;;;22.90
74798;BMP280;63326;45.088;7.658;2022-09-16T00:10:14;97777.28;;;22.62
74798;BMP280;63326;45.088;7.658;2022-09-16T00:12:40;97773.28;;;22.67
74798;BMP280;63326;45.088;7.658;2022-09-16T00:15:07;97778.84;;;22.85
74798;BMP280;63326;45.088;7.658;2022-09-16T00:17:35;97787.25;;;22.88
74798;BMP280;63326;45.088;7.658;2022-09-16T00:20:03;97784.47;;;22.43
74798;BMP280;63326;45.088;7.658;2022-09-16T00:22:30;97785.72;;;22.52
74798;BMP280;63326;45.088;7.658;2022-09-16T00:24:57;97787.63;;;22.64
74798;BMP280;63326;45.088;7.658;2022-09-16T00:27:23;97791.84;;;22.78
74798;BMP280;63326;45.088;7.658;2022-09-16T00:29:50;97788.28;;;22.68
74798;BMP280;63326;45.088;7.658;2022-09-16T00:32:17;97790.28;;;22.42
74798;BMP280;63326;45.088;7.658;2022-09-16T00:34:43;97788.59;;;22.35
74798;BMP280;63326;45.088;7.658;2022-09-16T00:37:10;97787.97;;;22.31
74798;BMP280;63326;45.088;7.658;2022-09-16T00:39:36;97793.63;;;22.59
74798;BMP280;63326;45.088;7.658;2022-09-16T00:42:04;97784.25;;;22.51
74798;BMP280;63326;45.088;7.658;2022-09-16T00:44:53;97783.44;;;22.63
74798;BMP280;63326;45.088;7.658;2022-09-16T00:47:50;97794.16;;;22.54
74798;BMP280;63326;45.088;7.658;2022-09-16T00:50:22;97786.22;;;22.24
74798;BMP280;63326;45.088;7.658;2022-09-16T00:52:51;97782.88;;;22.20
74798;BMP280;63326;45.088;7.658;2022-09-16T00:55:23;97773.97;;;22.45
74798;BMP280;63326;45.088;7.658;2022-09-16T00:57:52;97779.50;;;22.29
74798;BMP280;63326;45.088;7.658;2022-09-16T01:00:20;97777.03;;;22.35
74798;BMP280;63326;45.088;7.658;2022-09-16T01:02:48;97777.09;;;22.57
74798;BMP280;63326;45.088;7.658;2022-09-16T01:05:19;97777.31;;;22.50
74798;BMP280;63326;45.088;7.658;2022-09-16T01:07:48;97773.50;;;21.99
74798;BMP280;63326;45.088;7.658;2022-09-16T01:10:21;97776.53;;;22.01
74798;BMP280;63326;45.088;7.658;2022-09-16T01:12:54;97773.50;;;21.74
74798;BMP280;63326;45.088;7.658;2022-09-16T01:15:26;97772.94;;;21.79
74798;BMP280;63326;45.088;7.658;2022-09-16T01:18:20;97789.13;;;21.66
74798;BMP280;63326;45.088;7.658;2022-09-16T01:26:20;97786.06;;;21.38
74798;BMP280;63326;45.088;7.658;2022-09-16T01:41:03;97759.59;;;21.75
74798;BMP280;63326;45.088;7.658;2022-09-16T01:49:03;97760.22;;;21.67
74798;BMP280;63326;45.088;7.658;2022-09-16T01:57:06;97760.75;;;21.87
74798;BMP280;63326;45.088;7.658;2022-09-16T01:59:37;97765.84;;;21.98
74798;BMP280;63326;45.088;7.658;2022-09-16T02:04:43;97758.63;;;21.82
74798;BMP280;63326;45.088;7.658;2022-09-16T02:07:12;97762.34;;;21.72
74798;BMP280;63326;45.088;7.658;2022-09-16T02:09:43;97759.66;;;21.72
74798;BMP280;63326;45.088;7.658;2022-09-16T02:12:16;97757.84;;;21.81
74798;BMP280;63326;45.088;7.658;2022-09-16T02:14:45;97763.25;;;21.94
74798;BMP280;63326;45.088;7.658;2022-09-16T02:17:16;97763.91;;;21.98
74798;BMP280;63326;45.088;7.658;2022-09-16T02:19:57;97760.91;;;21.83
74798;BMP280;63326;45.088;7.658;2022-09-16T02:22:33;97759.00;;;21.68
74798;BMP280;63326;45.088;7.658;2022-09-16T02:25:02;97750.41;;;21.73
74798;BMP280;63326;45.088;7.658;2022-09-16T02:27:31;97747.56;;;21.63
74798;BMP280;63326;45.088;7.658;2022-09-16T02:30:04;97752.00;;;21.15
74798;BMP280;63326;45.088;7.658;2022-09-16T02:32:35;97747.94;;;21.23
74798;BMP280;63326;45.088;7.658;2022-09-16T02:35:03;97743.47;;;21.04
74798;BMP280;63326;45.088;7.658;2022-09-16T02:37:36;97746.72;;;20.82
74798;BMP280;63326;45.088;7.658;2022-09-16T02:40:33;97748.16;;;21.16
74798;BMP280;63326;45.088;7.658;2022-09-16T02:42:58;97737.25;;;20.61
74798;BMP280;63326;45.088;7.658;2022-09-16T02:45:44;97731.22;;;20.87
74798;BMP280;63326;45.088;7.658;2022-09-16T02:50:56;97727.09;;;20.36
74798;BMP280;63326;45.088;7.658;2022-09-16T02:53:35;97730.16;;;20.68
74798;BMP280;63326;45.088;7.658;2022-09-16T02:56:25;97737.84;;;20.53
74798;BMP280;63326;45.088;7.658;2022-09-16T02:58:52;97730.88;;;20.39
74798;BMP280;63326;45.088;7.658;2022-09-16T03:01:19;97736.50;;;20.28
74798;BMP280;63326;45.088;7.658;2022-09-16T03:03:47;97741.19;;;20.24
74798;BMP280;63326;45.088;7.658;2022-09-16T03:06:22;97742.16;;;20.17
74798;BMP280;63326;45.088;7.658;2022-09-16T03:08:51;97740.28;;;20.31
74798;BMP280;63326;45.088;7.658;2022-09-16T03:25:38;97739.88;;;20.32
74798;BMP280;63326;45.088;7.658;2022-09-16T03:28:14;97735.31;;;20.13
74798;BMP280;63326;45.088;7.658;2022-09-16T03:30:51;97727.84;;;20.20
74798;BMP280;63326;45.088;7.658;2022-09-16T03:33:24;97735.25;;;20.49
74798;BMP280;63326;45.088;7.658;2022-09-16T03:35:56;97731.09;;;20.61
74798;BMP280;63326;45.088;7.658;2022-09-16T03:38:25;97730.00;;;20.75
74798;BMP280;63326;45.088;7.658;2022-09-16T03:40:52;97729.66;;;20.73
74798;BMP280;63326;45.088;7.658;2022-09-16T03:43:19;97725.38;;;20.75
74798;BMP280;63326;45.088;7.658;2022-09-16T03:45:45;97728.56;;;20.70
74798;BMP280;63326;45.088;7.658;2022-09-16T03:48:12;97727.22;;;20.78
74798;BMP280;63326;45.088;7.658;2022-09-16T03:50:39;97722.75;;;20.72
74798;BMP280;63326;45.088;7.658;2022-09-16T03:53:05;97717.22;;;20.62
74798;BMP280;63326;45.088;7.658;2022-09-16T03:55:32;97720.88;;;20.56
74798;BMP280;63326;45.088;7.658;2022-09-16T03:57:59;97713.72;;;20.49
74798;BMP280;63326;45.088;7.658;2022-09-16T04:00:26;97719.75;;;20.70
74798;BMP280;63326;45.088;7.658;2022-09-16T04:02:54;97709.41;;;20.68
74798;BMP280;63326;45.088;7.658;2022-09-16T04:05:21;97711.56;;;20.73
74798;BMP280;63326;45.088;7.658;2022-09-16T04:07:48;97713.63;;;20.53
74798;BMP280;63326;45.088;7.658;2022-09-16T04:10:15;97708.16;;;20.56
74798;BMP280;63326;45.088;7.658;2022-09-16T04:12:42;97719.34;;;20.55
74798;BMP280;63326;45.088;7.658;2022-09-16T04:15:08;97715.28;;;20.63
74798;BMP280;63326;45.088;7.658;2022-09-16T04:17:35;97719.66;;;20.57
74798;BMP280;63326;45.088;7.658;2022-09-16T04:20:03;97719.88;;;20.50
74798;BMP280;63326;45.088;7.658;2022-09-16T04:22:30;97714.66;;;20.42
74798;BMP280;63326;45.088;7.658;2022-09-16T04:24:56;97720.59;;;20.67
74798;BMP280;63326;45.088;7.658;2022-09-16T04:27:23;97721.78;;;20.66
74798;BMP280;63326;45.088;7.658;2022-09-16T04:29:50;97710.44;;;20.41
74798;BMP280;63326;45.088;7.658;2022-09-16T04:32:17;97705.06;;;20.58
74798;BMP280;63326;45.088;7.658;2022-09-16T04:34:43;97712.00;;;20.55
74798;BMP280;63326;45.088;7.658;2022-09-16T04:37:10;97708.41;;;20.46
74798;BMP280;63326;45.088;7.658;2022-09-16T04:39:37;97709.09;;;20.50
74798;BMP280;63326;45.088;7.658;2022-09-16T04:42:04;97701.53;;;20.45
74798;BMP280;63326;45.088;7.658;2022-09-16T04:44:31;97701.69;;;20.37
74798;BMP280;63326;45.088;7.658;2022-09-16T04:46:57;97704.06;;;20.52
74798;BMP280;63326;45.088;7.658;2022-09-16T04:49:24;97704.38;;;20.54
74798;BMP280;63326;45.088;7.658;2022-09-16T04:51:50;97710.91;;;20.69
74798;BMP280;63326;45.088;7.658;2022-09-16T04:54:17;97717.75;;;20.57
74798;BMP280;63326;45.088;7.658;2022-09-16T04:56:44;97722.03;;;20.55
74798;BMP280;63326;45.088;7.658;2022-09-16T04:59:10;97723.56;;;20.56
74798;BMP280;63326;45.088;7.658;2022-09-16T05:01:37;97724.09;;;20.63
74798;BMP280;63326;45.088;7.658;2022-09-16T05:04:06;97734.63;;;20.74
74798;BMP280;63326;45.088;7.658;2022-09-16T05:06:35;97736.88;;;20.76
74798;BMP280;63326;45.088;7.658;2022-09-16T05:09:02;97743.31;;;20.33
74798;BMP280;63326;45.088;7.658;2022-09-16T05:11:32;97744.25;;;20.42
74798;BMP280;63326;45.088;7.658;2022-09-16T05:13:59;97738.00;;;20.46
74798;BMP280;63326;45.088;7.658;2022-09-16T05:16:27;97737.03;;;20.39
74798;BMP280;63326;45.088;7.658;2022-09-16T05:18:56;97738.09;;;20.42
74798;BMP280;63326;45.088;7.658;2022-09-16T05:21:25;97743.56;;;20.38
74798;BMP280;63326;45.088;7.658;2022-09-16T05:23:52;97734.47;;;20.49
74798;BMP280;63326;45.088;7.658;2022-09-16T05:26:23;97733.22;;;20.70
74798;BMP280;63326;45.088;7.658;2022-09-16T05:28:51;97731.44;;;20.79
74798;BMP280;63326;45.088;7.658;2022-09-16T05:31:24;97734.22;;;20.59
74798;BMP280;63326;45.088;7.658;2022-09-16T05:33:57;97732.44;;;20.69
74798;BMP280;63326;45.088;7.658;2022-09-16T05:36:24;97738.16;;;20.71
74798;BMP280;63326;45.088;7.658;2022-09-16T05:38:51;97734.13;;;20.63
74798;BMP280;63326;45.088;7.658;2022-09-16T05:41:38;97739.06;;;20.81
74798;BMP280;63326;45.088;7.658;2022-09-16T05:44:05;97740.91;;;20.84
74798;BMP280;63326;45.088;7.658;2022-09-16T05:46:34;97732.75;;;20.88
74798;BMP280;63326;45.088;7.658;2022-09-16T05:49:01;97737.94;;;20.95
74798;BMP280;63326;45.088;7.658;2022-09-16T05:51:28;97742.66;;;20.91
74798;BMP280;63326;45.088;7.658;2022-09-16T05:53:57;97737.53;;;20.96
74798;BMP280;63326;45.088;7.658;2022-09-16T05:56:26;97735.41;;;21.04
74798;BMP280;63326;45.088;7.658;2022-09-16T05:58:57;97732.59;;;21.08
74798;BMP280;63326;45.088;7.658;2022-09-16T06:01:26;97736.56;;;21.03
74798;BMP280;63326;45.088;7.658;2022-09-16T06:03:53;97737.69;;;21.18
74798;BMP280;63326;45.088;7.658;2022-09-16T06:06:28;97733.09;;;21.32
74798;BMP280;63326;45.088;7.658;2022-09-16T06:08:57;97744.19;;;21.34
74798;BMP280;63326;45.088;7.658;2022-09-16T06:11:24;97735.94;;;21.41
74798;BMP280;63326;45.088;7.658;2022-09-16T06:13:57;97741.97;;;21.58
74798;BMP280;63326;45.088;7.658;2022-09-16T06:16:26;97736.06;;;21.63
74798;BMP280;63326;45.088;7.658;2022-09-16T06:18:54;97739.72;;;21.69
74798;BMP280;63326;45.088;7.658;2022-09-16T06:21:21;97740.38;;;21.73
74798;BMP280;63326;45.088;7.658;2022-09-16T06:23:48;97741.25;;;21.70
74798;BMP280;63326;45.088;7.658;2022-09-16T06:26:19;97739.31;;;21.83
74798;BMP280;63326;45.088;7.658;2022-09-16T06:28:46;97748.59;;;21.82
74798;BMP280;63326;45.088;7.658;2022-09-16T06:31:15;97741.75;;;21.52
74798;BMP280;63326;45.088;7.658;2022-09-16T06:33:43;97745.34;;;21.88
74798;BMP280;63326;45.088;7.658;2022-09-16T06:36:15;97747.06;;;21.69
74798;BMP280;63326;45.088;7.658;2022-09-16T06:38:43;97748.78;;;21.88
74798;BMP280;63326;45.088;7.658;2022-09-16T06:41:11;97742.63;;;21.75
74798;BMP280;63326;45.088;7.658;2022-09-16T06:43:39;97738.34;;;21.90
74798;BMP280;63326;45.088;7.658;2022-09-16T06:46:08;97740.50;;;21.95
74798;BMP280;63326;45.088;7.658;2022-09-16T06:48:39;97741.13;;;21.87
74798;BMP280;63326;45.088;7.658;2022-09-16T06:51:09;97739.81;;;22.04
74798;BMP280;63326;45.088;7.658;2022-09-16T06:53:36;97748.78;;;22.01
74798;BMP280;63326;45.088;7.658;2022-09-16T06:56:05;97751.06;;;21.77
74798;BMP280;63326;45.088;7.658;2022-09-16T06:58:34;97741.78;;;21.78
74798;BMP280;63326;45.088;7.658;2022-09-16T07:01:05;97744.56;;;22.00
74798;BMP280;63326;45.088;7.658;2022-09-16T07:03:32;97753.00;;;21.89
74798;BMP280;63326;45.088;7.658;2022-09-16T07:06:00;97745.75;;;22.24
74798;BMP280;63326;45.088;7.658;2022-09-16T07:08:28;97748.16;;;22.44
74798;BMP280;63326;45.088;7.658;2022-09-16T07:10:56;97751.50;;;22.49
74798;BMP280;63326;45.088;7.658;2022-09-16T07:13:23;97747.63;;;22.50
74798;BMP280;63326;45.088;7.658;2022-09-16T07:15:50;97744.72;;;22.44
74798;BMP280;63326;45.088;7.658;2022-09-16T07:18:37;97752.69;;;22.48
74798;BMP280;63326;45.088;7.658;2022-09-16T07:21:15;97748.38;;;22.50
74798;BMP280;63326;45.088;7.658;2022-09-16T07:23:43;97758.09;;;22.82
74798;BMP280;63326;45.088;7.658;2022-09-16T07:26:11;97770.75;;;22.85
74798;BMP280;63326;45.088;7.658;2022-09-16T07:28:39;97758.41;;;22.84
74798;BMP280;63326;45.088;7.658;2022-09-16T07:31:11;97752.63;;;22.95
74798;BMP280;63326;45.088;7.658;2022-09-16T07:33:41;97755.16;;;23.12
74798;BMP280;63326;45.088;7.658;2022-09-16T07:36:09;97756.41;;;23.20
74798;BMP280;63326;45.088;7.658;2022-09-16T07:38:36;97750.44;;;23.03
74798;BMP280;63326;45.088;7.658;2022-09-16T07:41:09;97755.59;;;23.10
74798;BMP280;63326;45.088;7.658;2022-09-16T07:43:37;97752.50;;;23.21
74798;BMP280;63326;45.088;7.658;2022-09-16T07:46:06;97753.78;;;23.07
74798;BMP280;63326;45.088;7.658;2022-09-16T07:48:33;97753.72;;;23.20
74798;BMP280;63326;45.088;7.658;2022-09-16T07:51:07;97755.84;;;23.25
74798;BMP280;63326;45.088;7.658;2022-09-16T07:53:34;97758.66;;;23.21
74798;BMP280;63326;45.088;7.658;2022-09-16T07:56:06;97762.41;;;23.46
74798;BMP280;63326;45.088;7.658;2022-09-16T07:58:33;97759.75;;;23.55
74798;BMP280;63326;45.088;7.658;2022-09-16T08:00:59;97757.44;;;23.44
74798;BMP280;63326;45.088;7.658;2022-09-16T08:03:38;97761.56;;;23.58
74798;BMP280;63326;45.088;7.658;2022-09-16T08:06:07;97763.13;;;23.68
74798;BMP280;63326;45.088;7.658;2022-09-16T08:08:35;97767.28;;;23.92
74798;BMP280;63326;45.088;7.658;2022-09-16T08:11:02;97769.22;;;23.91
74798;BMP280;63326;45.088;7.658;2022-09-16T08:13:31;97757.56;;;23.72
74798;BMP280;63326;45.088;7.658;2022-09-16T08:16:27;97761.72;;;23.64
74798;BMP280;63326;45.088;7.658;2022-09-16T08:18:54;97763.38;;;24.02
74798;BMP280;63326;45.088;7.658;2022-09-16T08:21:26;97767.44;;;23.97
74798;BMP280;63326;45.088;7.658;2022-09-16T08:23:53;97757.97;;;24.02
74798;BMP280;63326;45.088;7.658;2022-09-16T08:26:21;97765.34;;;24.10
74798;BMP280;63326;45.088;7.658;2022-09-16T08:28:49;97768.44;;;24.49
74798;BMP280;63326;45.088;7.658;2022-09-16T08:31:34;97763.31;;;24.42
74798;BMP280;63326;45.088;7.658;2022-09-16T08:34:00;97765.41;;;24.57
74798;BMP280;63326;45.088;7.658;2022-09-16T08:36:27;97760.75;;;24.66
74798;BMP280;63326;45.088;7.658;2022-09-16T08:38:54;97757.72;;;24.74
74798;BMP280;63326;45.088;7.658;2022-09-16T08:41:45;97751.13;;;24.93
74798;BMP280;63326;45.088;7.658;2022-09-16T08:47:56;97750.03;;;24.90
74798;BMP280;63326;45.088;7.658;2022-09-16T08:50:34;97755.16;;;25.07
74798;BMP280;63326;45.088;7.658;2022-09-16T08:53:09;97752.34;;;25.25
74798;BMP280;63326;45.088;7.658;2022-09-16T08:55:40;97752.25;;;25.10
74798;BMP280;63326;45.088;7.658;2022-09-16T08:58:22;97746.38;;;25.12
74798;BMP280;63326;45.088;7.658;2022-09-16T09:00:59;97747.25;;;25.27
74798;BMP280;63326;45.088;7.658;2022-09-16T09:03:36;97738.31;;;25.36
74798;BMP280;63326;45.088;7.658;2022-09-16T09:11:38;97737.13;;;25.70
74798;BMP280;63326;45.088;7.658;2022-09-16T09:28:43;97721.56;;;25.56
74798;BMP280;63326;45.088;7.658;2022-09-16T09:31:25;97721.06;;;25.58
74798;BMP280;63326;45.088;7.658;2022-09-16T09:34:05;97716.38;;;25.58
74798;BMP280;63326;45.088;7.658;2022-09-16T09:42:26;97711.09;;;25.88
74798;BMP280;63326;45.088;7.658;2022-09-16T09:45:15;97704.28;;;25.92
74798;BMP280;63326;45.088;7.658;2022-09-16T09:48:03;97706.47;;;26.27
74798;BMP280;63326;45.088;7.658;2022-09-16T09:50:43;97702.69;;;26.25
74798;BMP280;63326;45.088;7.658;2022-09-16T09:55:38;97685.94;;;26.26
74798;BMP280;63326;45.088;7.658;2022-09-16T09:58:25;97683.19;;;26.11
74798;BMP280;63326;45.088;7.658;2022-09-16T10:00:54;97682.19;;;26.24
74798;BMP280;63326;45.088;7.658;2022-09-16T10:03:25;97671.72;;;26.46
74798;BMP280;63326;45.088;7.658;2022-09-16T10:05:51;97678.25;;;26.25
74798;BMP280;63326;45.088;7.658;2022-09-16T10:08:34;97671.06;;;26.51
74798;BMP280;63326;45.088;7.658;2022-09-16T10:11:17;97667.31;;;26.64
74798;BMP280;63326;45.088;7.658;2022-09-16T10:13:50;97660.31;;;26.57
74798;BMP280;63326;45.088;7.658;2022-09-16T10:16:19;97655.06;;;26.53
74798;BMP280;63326;45.088;7.658;2022-09-16T10:19:00;97654.94;;;26.77
74798;BMP280;63326;45.088;7.658;2022-09-16T10:21:50;97645.38;;;26.82
74798;BMP280;63326;45.088;7.658;2022-09-16T10:24:36;97648.66;;;26.86
74798;BMP280;63326;45.088;7.658;2022-09-16T10:27:19;97647.47;;;26.72
74798;BMP280;63326;45.088;7.658;2022-09-16T10:29:47;97642.22;;;26.69
74798;BMP280;63326;45.088;7.658;2022-09-16T10:32:17;97635.72;;;26.81
74798;BMP280;63326;45.088;7.658;2022-09-16T10:34:45;97632.81;;;26.85
74798;BMP280;63326;45.088;7.658;2022-09-16T10:39:49;97631.25;;;26.78
74798;BMP280;63326;45.088;7.658;2022-09-16T10:42:19;97625.81;;;26.78
74798;BMP280;63326;45.088;7.658;2022-09-16T10:44:47;97621.44;;;26.66
74798;BMP280;63326;45.088;7.658;2022-09-16T10:47:35;97622.78;;;26.91
74798;BMP280;63326;45.088;7.658;2022-09-16T10:50:03;97614.47;;;27.15
74798;BMP280;63326;45.088;7.658;2022-09-16T10:52:40;97611.22;;;27.31
74798;BMP280;63326;45.088;7.658;2022-09-16T10:55:31;97592.44;;;27.54
74798;BMP280;63326;45.088;7.658;2022-09-16T10:58:08;97598.63;;;27.75
74798;BMP280;63326;45.088;7.658;2022-09-16T11:03:59;97578.59;;;27.31
74798;BMP280;63326;45.088;7.658;2022-09-16T11:12:06;97577.97;;;27.42
74798;BMP280;63326;45.088;7.658;2022-09-16T11:22:55;97571.63;;;27.71
74798;BMP280;63326;45.088;7.658;2022-09-16T11:28:44;97560.66;;;27.39
74798;BMP280;63326;45.088;7.658;2022-09-16T11:33:57;97548.34;;;27.70
74798;BMP280;63326;45.088;7.658;2022-09-16T11:42:17;97547.13;;;28.29
74798;BMP280;63326;45.088;7.658;2022-09-16T11:53:46;97532.31;;;28.79
74798;BMP280;63326;45.088;7.658;2022-09-16T11:59:10;97519.22;;;28.94
74798;BMP280;63326;45.088;7.658;2022-09-16T12:01:45;97516.63;;;29.16
74798;BMP280;63326;45.088;7.658;2022-09-16T12:04:35;97522.34;;;29.30
74798;BMP280;63326;45.088;7.658;2022-09-16T12:07:34;97526.31;;;29.29
74798;BMP280;63326;45.088;7.658;2022-09-16T12:10:10;97526.53;;;29.20
74798;BMP280;63326;45.088;7.658;2022-09-16T12:12:43;97516.59;;;29.05
74798;BMP280;63326;45.088;7.658;2022-09-16T12:15:19;97510.69;;;29.35
74798;BMP280;63326;45.088;7.658;2022-09-16T12:17:57;97502.00;;;29.31
74798;BMP280;63326;45.088;7.658;2022-09-16T12:20:35;97502.28;;;29.55
74798;BMP280;63326;45.088;7.658;2022-09-16T12:23:17;97497.59;;;29.78
74798;BMP280;63326;45.088;7.658;2022-09-16T12:25:51;97497.84;;;29.75
74798;BMP280;63326;45.088;7.658;2022-09-16T12:28:32;97492.41;;;29.75
74798;BMP280;63326;45.088;7.658;2022-09-16T12:33:35;97478.50;;;29.73
74798;BMP280;63326;45.088;7.658;2022-09-16T12:36:09;97476.44;;;30.24
74798;BMP280;63326;45.088;7.658;2022-09-16T12:38:38;97477.69;;;30.23
74798;BMP280;63326;45.088;7.658;2022-09-16T12:46:40;97471.94;;;30.32
74798;BMP280;63326;45.088;7.658;2022-09-16T13:00:12;97454.97;;;31.03
74798;BMP280;63326;45.088;7.658;2022-09-16T13:02:50;97452.53;;;31.00
74798;BMP280;63326;45.088;7.658;2022-09-16T13:05:30;97456.69;;;30.59
74798;BMP280;63326;45.088;7.658;2022-09-16T13:08:04;97446.69;;;30.79
74798;BMP280;63326;45.088;7.658;2022-09-16T13:10:39;97448.50;;;30.54
74798;BMP280;63326;45.088;7.658;2022-09-16T13:16:03;97441.16;;;30.90
74798;BMP280;63326;45.088;7.658;2022-09-16T13:21:28;97431.13;;;31.04
74798;BMP280;63326;45.088;7.658;2022-09-16T13:26:52;97422.34;;;31.11
74798;BMP280;63326;45.088;7.658;2022-09-16T13:29:38;97416.88;;;31.11
74798;BMP280;63326;45.088;7.658;2022-09-16T13:37:50;97394.69;;;31.20
74798;BMP280;63326;45.088;7.658;2022-09-16T13:40:26;97399.03;;;31.34
74798;BMP280;63326;45.088;7.658;2022-09-16T13:45:42;97402.22;;;31.39
74798;BMP280;63326;45.088;7.658;2022-09-16T13:48:15;97388.97;;;31.48
74798;BMP280;63326;45.088;7.658;2022-09-16T13:50:53;97394.06;;;31.63
74798;BMP280;63326;45.088;7.658;2022-09-16T13:53:27;97392.56;;;31.62
74798;BMP280;63326;45.088;7.658;2022-09-16T13:56:00;97390.59;;;31.63
74798;BMP280;63326;45.088;7.658;2022-09-16T13:58:36;97393.72;;;31.97
74798;BMP280;63326;45.088;7.658;2022-09-16T14:04:00;97385.16;;;31.82
74798;BMP280;63326;45.088;7.658;2022-09-16T14:12:19;97389.72;;;31.98
74798;BMP280;63326;45.088;7.658;2022-09-16T14:14:48;97378.34;;;32.32
74798;BMP280;63326;45.088;7.658;2022-09-16T14:17:21;97370.72;;;32.43
74798;BMP280;63326;45.088;7.658;2022-09-16T14:19:57;97366.47;;;32.61
74798;BMP280;63326;45.088;7.658;2022-09-16T14:22:25;97373.75;;;32.40
74798;BMP280;63326;45.088;7.658;2022-09-16T14:24:54;97370.13;;;32.32
74798;BMP280;63326;45.088;7.658;2022-09-16T14:27:38;97365.44;;;32.45
74798;BMP280;63326;45.088;7.658;2022-09-16T14:30:14;97362.47;;;32.24
74798;BMP280;63326;45.088;7.658;2022-09-16T14:32:43;97363.38;;;31.46
74798;BMP280;63326;45.088;7.658;2022-09-16T14:35:17;97352.94;;;31.69
74798;BMP280;63326;45.088;7.658;2022-09-16T14:37:46;97361.81;;;32.37
74798;BMP280;63326;45.088;7.658;2022-09-16T14:40:16;97366.66;;;31.88
74798;BMP280;63326;45.088;7.658;2022-09-16T14:42:54;97350.50;;;31.65
74798;BMP280;63326;45.088;7.658;2022-09-16T14:45:22;97350.25;;;31.63
74798;BMP280;63326;45.088;7.658;2022-09-16T14:47:51;97341.13;;;31.79
74798;BMP280;63326;45.088;7.658;2022-09-16T14:50:23;97335.00;;;32.11
74798;BMP280;63326;45.088;7.658;2022-09-16T14:52:55;97335.75;;;32.31
74798;BMP280;63326;45.088;7.658;2022-09-16T14:55:26;97334.78;;;32.47
74798;BMP280;63326;45.088;7.658;2022-09-16T14:57:57;97332.84;;;32.04
74798;BMP280;63326;45.088;7.658;2022-09-16T15:00:31;97334.84;;;31.60
74798;BMP280;63326;45.088;7.658;2022-09-16T15:03:16;97331.09;;;31.63
74798;BMP280;63326;45.088;7.658;2022-09-16T15:05:46;97333.28;;;31.46
74798;BMP280;63326;45.088;7.658;2022-09-16T15:08:31;97332.84;;;31.85
74798;BMP280;63326;45.088;7.658;2022-09-16T15:11:04;97343.81;;;32.04
74798;BMP280;63326;45.088;7.658;2022-09-16T15:13:56;97338.91;;;31.53
74798;BMP280;63326;45.088;7.658;2022-09-16T15:16:23;97340.19;;;30.92
74798;BMP280;63326;45.088;7.658;2022-09-16T15:19:03;97345.50;;;31.39
74798;BMP280;63326;45.088;7.658;2022-09-16T15:21:34;97356.63;;;31.47
74798;BMP280;63326;45.088;7.658;2022-09-16T15:24:18;97329.81;;;31.40
74798;BMP280;63326;45.088;7.658;2022-09-16T15:26:47;97328.25;;;31.20
74798;BMP280;63326;45.088;7.658;2022-09-16T15:31:49;97335.03;;;30.41
74798;BMP280;63326;45.088;7.658;2022-09-16T15:36:57;97324.34;;;30.43
74798;BMP280;63326;45.088;7.658;2022-09-16T15:39:36;97325.50;;;30.54
74798;BMP280;63326;45.088;7.658;2022-09-16T15:42:19;97333.16;;;30.19
74798;BMP280;63326;45.088;7.658;2022-09-16T15:44:56;97335.41;;;30.10
74798;BMP280;63326;45.088;7.658;2022-09-16T15:47:31;97335.41;;;30.15
74798;BMP280;63326;45.088;7.658;2022-09-16T15:50:13;97317.53;;;30.14
74798;BMP280;63326;45.088;7.658;2022-09-16T15:55:30;97321.41;;;30.30
74798;BMP280;63326;45.088;7.658;2022-09-16T15:58:04;97309.63;;;30.05
74798;BMP280;63326;45.088;7.658;2022-09-16T16:03:20;97318.41;;;30.39
74798;BMP280;63326;45.088;7.658;2022-09-16T16:05:51;97309.47;;;30.33
74798;BMP280;63326;45.088;7.658;2022-09-16T16:08:44;97316.63;;;29.89
74798;BMP280;63326;45.088;7.658;2022-09-16T16:11:17;97321.16;;;29.70
74798;BMP280;63326;45.088;7.658;2022-09-16T16:13:44;97324.69;;;29.53
74798;BMP280;63326;45.088;7.658;2022-09-16T16:16:13;97314.00;;;29.50
74798;BMP280;63326;45.088;7.658;2022-09-16T16:18:42;97321.69;;;29.46
74798;BMP280;63326;45.088;7.658;2022-09-16T16:21:13;97310.53;;;29.49
74798;BMP280;63326;45.088;7.658;2022-09-16T16:23:41;97309.81;;;29.32
74798;BMP280;63326;45.088;7.658;2022-09-16T16:26:09;97325.19;;;29.35
74798;BMP280;63326;45.088;7.658;2022-09-16T16:28:36;97309.81;;;29.26
74798;BMP280;63326;45.088;7.658;2022-09-16T16:31:16;97315.25;;;29.21
74798;BMP280;63326;45.088;7.658;2022-09-16T16:34:02;97319.00;;;29.23
74798;BMP280;63326;45.088;7.658;2022-09-16T16:36:30;97311.56;;;29.07
74798;BMP280;63326;45.088;7.658;2022-09-16T16:38:56;97317.75;;;28.96
74798;BMP280;63326;45.088;7.658;2022-09-16T16:41:24;97311.06;;;28.97
74798;BMP280;63326;45.088;7.658;2022-09-16T16:43:51;97323.97;;;29.08
74798;BMP280;63326;45.088;7.658;2022-09-16T16:46:18;97311.75;;;29.48
74798;BMP280;63326;45.088;7.658;2022-09-16T16:48:44;97329.09;;;29.68
74798;BMP280;63326;45.088;7.658;2022-09-16T16:51:12;97321.94;;;29.31
74798;BMP280;63326;45.088;7.658;2022-09-16T16:53:38;97316.75;;;29.05
74798;BMP280;63326;45.088;7.658;2022-09-16T16:56:10;97318.25;;;28.89
74798;BMP280;63326;45.088;7.658;2022-09-16T16:58:41;97326.41;;;28.78
74798;BMP280;63326;45.088;7.658;2022-09-16T17:01:12;97325.13;;;28.67
74798;BMP280;63326;45.088;7.658;2022-09-16T17:03:40;97322.66;;;28.69
74798;BMP280;63326;45.088;7.658;2022-09-16T17:06:08;97329.31;;;28.57
74798;BMP280;63326;45.088;7.658;2022-09-16T17:08:34;97320.59;;;28.42
74798;BMP280;63326;45.088;7.658;2022-09-16T17:13:37;97320.06;;;28.38
74798;BMP280;63326;45.088;7.658;2022-09-16T17:16:04;97313.88;;;28.31
74798;BMP280;63326;45.088;7.658;2022-09-16T17:18:35;97315.34;;;28.27
74798;BMP280;63326;45.088;7.658;2022-09-16T17:21:08;97321.38;;;27.94
74798;BMP280;63326;45.088;7.658;2022-09-16T17:23:35;97340.06;;;28.12
74798;BMP280;63326;45.088;7.658;2022-09-16T17:26:02;97346.19;;;28.07
74798;BMP280;63326;45.088;7.658;2022-09-16T17:28:30;97354.06;;;27.94
74798;BMP280;63326;45.088;7.658;2022-09-16T17:30:57;97361.72;;;27.58
74798;BMP280;63326;45.088;7.658;2022-09-16T17:33:23;97362.28;;;27.67
74798;BMP280;63326;45.088;7.658;2022-09-16T17:36:01;97362.75;;;27.60